sensor_id;sensor_type;location;lat;lon;timestamp;P1;durP1;ratioP1;P2;durP2;ratioP2
9880;SDS011;4979;51.014;6.678;2023-11-19T00:01:26;2.08;;;1.48;;
9880;SDS011;4979;51.014;6.678;2023-11-19T00:03:52;2.65;;;1.10;;
9880;SDS011;4979;51.014;6.678;2023-11-19T00:06:18;2.15;;;0.63;;
9880;SDS011;4979;51.014;6.678;2023-11-19T00:08:44;1.17;;;1.00;;
9880;SDS011;4979;51.014;6.678;2023-11-19T00:11:09;1.20;;;1.10;;
9880;SDS011;4979;51.014;6.678;2023-11-19T00:13:36;2.25;;;1.13;;
9880;SDS011;4979;51.014;6.678;2023-11-19T00:16:02;2.80;;;1.00;;
9880;SDS011;4979;51.014;6.678;2023-11-19T00:18:29;3.75;;;1.17;;
9880;SDS011;4979;51.014;6.678;2023-11-19T00:20:54;1.42;;;1.15;;
9880;SDS011;4979;51.014;6.678;2023-11-19T00:23:20;8.27;;;0.85;;
9880;SDS011;4979;51.014;6.678;2023-11-19T00:25:45;1.10;;;1.00;;
9880;SDS011;4979;51.014;6.678;2023-11-19T00:28:12;4.68;;;1.52;;
9880;SDS011;4979;51.014;6.678;2023-11-19T00:30:38;2.70;;;1.63;;
9880;SDS011;4979;51.014;6.678;2023-11-19T00:33:05;3.90;;;0.95;;
9880;SDS011;4979;51.014;6.678;2023-11-19T00:35:31;0.75;;;0.75;;
9880;SDS011;4979;51.014;6.678;2023-11-19T00:37:57;0.80;;;0.70;;
9880;SDS011;4979;51.014;6.678;2023-11-19T00:40:22;1.08;;;0.60;;
9880;SDS011;4979;51.014;6.678;2023-11-19T00:42:48;0.60;;;0.60;;
9880;SDS011;4979;51.014;6.678;2023-11-19T00:45:15;0.60;;;0.60;;
9880;SDS011;4979;51.014;6.678;2023-11-19T00:47:40;0.90;;;0.90;;
9880;SDS011;4979;51.014;6.678;2023-11-19T00:50:06;0.80;;;0.80;;
9880;SDS011;4979;51.014;6.678;2023-11-19T00:52:36;0.50;;;0.50;;
9880;SDS011;4979;51.014;6.678;2023-11-19T00:55:02;0.60;;;0.60;;
9880;SDS011;4979;51.014;6.678;2023-11-19T00:57:29;0.65;;;0.65;;
9880;SDS011;4979;51.014;6.678;2023-11-19T00:59:57;2.42;;;0.90;;
9880;SDS011;4979;51.014;6.678;2023-11-19T01:02:23;1.98;;;1.00;;
9880;SDS011;4979;51.014;6.678;2023-11-19T01:04:49;1.77;;;0.50;;
9880;SDS011;4979;51.014;6.678;2023-11-19T01:07:15;1.42;;;0.77;;
9880;SDS011;4979;51.014;6.678;2023-11-19T01:09:41;0.60;;;0.60;;
9880;SDS011;4979;51.014;6.678;2023-11-19T01:12:07;0.57;;;0.57;;
9880;SDS011;4979;51.014;6.678;2023-11-19T01:14:34;2.78;;;0.60;;
9880;SDS011;4979;51.014;6.678;2023-11-19T01:17:00;3.25;;;0.70;;
9880;SDS011;4979;51.014;6.678;2023-11-19T01:19:26;1.08;;;0.98;;
9880;SDS011;4979;51.014;6.678;2023-11-19T01:21:53;0.45;;;0.45;;
9880;SDS011;4979;51.014;6.678;2023-11-19T01:24:19;2.20;;;1.33;;
9880;SDS011;4979;51.014;6.678;2023-11-19T01:26:45;1.75;;;0.90;;
9880;SDS011;4979;51.014;6.678;2023-11-19T01:29:14;1.75;;;1.13;;
9880;SDS011;4979;51.014;6.678;2023-11-19T01:31:43;1.83;;;1.30;;
9880;SDS011;4979;51.014;6.678;2023-11-19T01:34:11;1.27;;;1.20;;
9880;SDS011;4979;51.014;6.678;2023-11-19T01:36:37;1.45;;;1.20;;
9880;SDS011;4979;51.014;6.678;2023-11-19T01:39:04;3.00;;;1.33;;
9880;SDS011;4979;51.014;6.678;2023-11-19T01:41:33;3.88;;;1.55;;
9880;SDS011;4979;51.014;6.678;2023-11-19T01:44:00;4.40;;;1.50;;
9880;SDS011;4979;51.014;6.678;2023-11-19T01:46:26;4.63;;;1.40;;
9880;SDS011;4979;51.014;6.678;2023-11-19T01:48:51;3.60;;;1.50;;
9880;SDS011;4979;51.014;6.678;2023-11-19T01:51:19;3.05;;;1.45;;
9880;SDS011;4979;51.014;6.678;2023-11-19T01:53:46;5.28;;;1.90;;
9880;SDS011;4979;51.014;6.678;2023-11-19T01:56:13;2.88;;;1.45;;
9880;SDS011;4979;51.014;6.678;2023-11-19T01:58:40;2.75;;;1.67;;
9880;SDS011;4979;51.014;6.678;2023-11-19T02:01:08;7.22;;;2.08;;
9880;SDS011;4979;51.014;6.678;2023-11-19T02:03:36;4.25;;;2.10;;
9880;SDS011;4979;51.014;6.678;2023-11-19T02:06:02;6.13;;;2.00;;
9880;SDS011;4979;51.014;6.678;2023-11-19T02:08:28;8.25;;;2.05;;
9880;SDS011;4979;51.014;6.678;2023-11-19T02:10:55;3.33;;;1.85;;
9880;SDS011;4979;51.014;6.678;2023-11-19T02:13:23;8.93;;;2.25;;
9880;SDS011;4979;51.014;6.678;2023-11-19T02:15:51;7.97;;;2.08;;
9880;SDS011;4979;51.014;6.678;2023-11-19T02:18:27;12.00;;;2.78;;
9880;SDS011;4979;51.014;6.678;2023-11-19T02:20:56;9.07;;;2.53;;
9880;SDS011;4979;51.014;6.678;2023-11-19T02:23:23;6.18;;;2.10;;
9880;SDS011;4979;51.014;6.678;2023-11-19T02:26:05;7.68;;;2.33;;
9880;SDS011;4979;51.014;6.678;2023-11-19T02:28:41;6.63;;;2.17;;
9880;SDS011;4979;51.014;6.678;2023-11-19T02:31:08;8.27;;;2.50;;
9880;SDS011;4979;51.014;6.678;2023-11-19T02:33:34;9.25;;;2.15;;
9880;SDS011;4979;51.014;6.678;2023-11-19T02:36:01;10.38;;;2.75;;
9880;SDS011;4979;51.014;6.678;2023-11-19T02:38:28;9.45;;;2.65;;
9880;SDS011;4979;51.014;6.678;2023-11-19T02:40:55;6.53;;;2.08;;
9880;SDS011;4979;51.014;6.678;2023-11-19T02:43:21;11.35;;;2.75;;
9880;SDS011;4979;51.014;6.678;2023-11-19T02:45:47;12.95;;;3.15;;
9880;SDS011;4979;51.014;6.678;2023-11-19T02:48:13;9.00;;;2.60;;
9880;SDS011;4979;51.014;6.678;2023-11-19T02:50:40;4.57;;;1.80;;
9880;SDS011;4979;51.014;6.678;2023-11-19T02:53:06;10.60;;;2.78;;
9880;SDS011;4979;51.014;6.678;2023-11-19T02:55:32;9.68;;;2.53;;
9880;SDS011;4979;51.014;6.678;2023-11-19T02:58:02;8.77;;;2.20;;
9880;SDS011;4979;51.014;6.678;2023-11-19T03:00:34;15.75;;;3.00;;
9880;SDS011;4979;51.014;6.678;2023-11-19T03:03:02;7.05;;;2.22;;
9880;SDS011;4979;51.014;6.678;2023-11-19T03:05:42;13.25;;;2.65;;
9880;SDS011;4979;51.014;6.678;2023-11-19T03:08:09;11.07;;;2.85;;
9880;SDS011;4979;51.014;6.678;2023-11-19T03:10:35;9.00;;;2.00;;
9880;SDS011;4979;51.014;6.678;2023-11-19T03:13:01;8.27;;;2.70;;
9880;SDS011;4979;51.014;6.678;2023-11-19T03:15:27;10.40;;;2.97;;
9880;SDS011;4979;51.014;6.678;2023-11-19T03:17:52;9.15;;;2.60;;
9880;SDS011;4979;51.014;6.678;2023-11-19T03:20:19;9.75;;;2.85;;
9880;SDS011;4979;51.014;6.678;2023-11-19T03:22:45;11.80;;;3.08;;
9880;SDS011;4979;51.014;6.678;2023-11-19T03:25:11;14.63;;;3.38;;
9880;SDS011;4979;51.014;6.678;2023-11-19T03:27:38;11.30;;;2.38;;
9880;SDS011;4979;51.014;6.678;2023-11-19T03:30:08;13.52;;;2.88;;
9880;SDS011;4979;51.014;6.678;2023-11-19T03:32:35;12.30;;;2.50;;
9880;SDS011;4979;51.014;6.678;2023-11-19T03:35:00;12.77;;;2.97;;
9880;SDS011;4979;51.014;6.678;2023-11-19T03:37:26;13.70;;;3.10;;
9880;SDS011;4979;51.014;6.678;2023-11-19T03:39:56;12.88;;;2.78;;
9880;SDS011;4979;51.014;6.678;2023-11-19T03:42:24;14.27;;;2.60;;
9880;SDS011;4979;51.014;6.678;2023-11-19T03:44:55;9.05;;;2.58;;
9880;SDS011;4979;51.014;6.678;2023-11-19T03:47:21;11.30;;;3.25;;
9880;SDS011;4979;51.014;6.678;2023-11-19T03:49:50;11.45;;;2.47;;
9880;SDS011;4979;51.014;6.678;2023-11-19T03:52:16;10.82;;;2.42;;
9880;SDS011;4979;51.014;6.678;2023-11-19T03:54:42;9.38;;;2.83;;
9880;SDS011;4979;51.014;6.678;2023-11-19T03:57:08;10.15;;;2.70;;
9880;SDS011;4979;51.014;6.678;2023-11-19T03:59:35;8.13;;;2.63;;
9880;SDS011;4979;51.014;6.678;2023-11-19T04:02:01;14.20;;;4.13;;
9880;SDS011;4979;51.014;6.678;2023-11-19T04:04:27;12.85;;;3.28;;
9880;SDS011;4979;51.014;6.678;2023-11-19T04:06:54;9.02;;;2.80;;
9880;SDS011;4979;51.014;6.678;2023-11-19T04:09:20;14.02;;;3.03;;
9880;SDS011;4979;51.014;6.678;2023-11-19T04:11:46;12.13;;;2.97;;
9880;SDS011;4979;51.014;6.678;2023-11-19T04:14:12;14.52;;;3.00;;
9880;SDS011;4979;51.014;6.678;2023-11-19T04:16:38;10.40;;;2.47;;
9880;SDS011;4979;51.014;6.678;2023-11-19T04:19:04;11.90;;;2.88;;
9880;SDS011;4979;51.014;6.678;2023-11-19T04:21:30;12.63;;;2.72;;
9880;SDS011;4979;51.014;6.678;2023-11-19T04:23:55;11.20;;;2.75;;
9880;SDS011;4979;51.014;6.678;2023-11-19T04:26:21;12.27;;;3.05;;
9880;SDS011;4979;51.014;6.678;2023-11-19T04:28:47;9.30;;;2.67;;
9880;SDS011;4979;51.014;6.678;2023-11-19T04:31:14;9.93;;;3.10;;
9880;SDS011;4979;51.014;6.678;2023-11-19T04:33:41;11.05;;;2.78;;
9880;SDS011;4979;51.014;6.678;2023-11-19T04:36:07;13.40;;;3.20;;
9880;SDS011;4979;51.014;6.678;2023-11-19T04:38:33;18.13;;;3.47;;
9880;SDS011;4979;51.014;6.678;2023-11-19T04:40:58;11.82;;;3.60;;
9880;SDS011;4979;51.014;6.678;2023-11-19T04:43:24;12.00;;;2.28;;
9880;SDS011;4979;51.014;6.678;2023-11-19T04:45:49;13.20;;;3.10;;
9880;SDS011;4979;51.014;6.678;2023-11-19T04:48:15;15.90;;;3.42;;
9880;SDS011;4979;51.014;6.678;2023-11-19T04:50:40;12.95;;;3.00;;
9880;SDS011;4979;51.014;6.678;2023-11-19T04:53:06;13.23;;;4.15;;
9880;SDS011;4979;51.014;6.678;2023-11-19T04:55:31;16.63;;;2.47;;
9880;SDS011;4979;51.014;6.678;2023-11-19T04:57:57;14.77;;;4.43;;
9880;SDS011;4979;51.014;6.678;2023-11-19T05:00:23;7.57;;;2.47;;
9880;SDS011;4979;51.014;6.678;2023-11-19T05:02:48;9.70;;;2.83;;
9880;SDS011;4979;51.014;6.678;2023-11-19T05:05:15;12.27;;;2.88;;
9880;SDS011;4979;51.014;6.678;2023-11-19T05:07:41;15.82;;;3.30;;
9880;SDS011;4979;51.014;6.678;2023-11-19T05:10:07;10.15;;;2.60;;
9880;SDS011;4979;51.014;6.678;2023-11-19T05:12:33;9.43;;;2.10;;
9880;SDS011;4979;51.014;6.678;2023-11-19T05:14:59;14.60;;;2.65;;
9880;SDS011;4979;51.014;6.678;2023-11-19T05:17:25;12.75;;;2.90;;
9880;SDS011;4979;51.014;6.678;2023-11-19T05:19:51;17.38;;;3.33;;
9880;SDS011;4979;51.014;6.678;2023-11-19T05:22:16;15.77;;;3.05;;
9880;SDS011;4979;51.014;6.678;2023-11-19T05:24:42;8.15;;;2.25;;
9880;SDS011;4979;51.014;6.678;2023-11-19T05:27:08;17.65;;;2.90;;
9880;SDS011;4979;51.014;6.678;2023-11-19T05:29:36;23.90;;;3.70;;
9880;SDS011;4979;51.014;6.678;2023-11-19T05:32:04;11.75;;;2.28;;
9880;SDS011;4979;51.014;6.678;2023-11-19T05:34:30;13.65;;;3.58;;
9880;SDS011;4979;51.014;6.678;2023-11-19T05:36:55;17.73;;;3.75;;
9880;SDS011;4979;51.014;6.678;2023-11-19T05:39:22;12.40;;;2.25;;
9880;SDS011;4979;51.014;6.678;2023-11-19T05:41:47;14.18;;;2.63;;
9880;SDS011;4979;51.014;6.678;2023-11-19T05:44:13;12.75;;;2.95;;
9880;SDS011;4979;51.014;6.678;2023-11-19T05:46:38;9.95;;;2.33;;
9880;SDS011;4979;51.014;6.678;2023-11-19T05:49:07;18.90;;;3.00;;
9880;SDS011;4979;51.014;6.678;2023-11-19T05:51:36;11.13;;;2.70;;
9880;SDS011;4979;51.014;6.678;2023-11-19T05:54:03;12.52;;;3.42;;
9880;SDS011;4979;51.014;6.678;2023-11-19T05:56:29;16.48;;;3.42;;
9880;SDS011;4979;51.014;6.678;2023-11-19T05:58:57;19.23;;;2.90;;
9880;SDS011;4979;51.014;6.678;2023-11-19T06:01:25;14.32;;;3.03;;
9880;SDS011;4979;51.014;6.678;2023-11-19T06:03:51;16.30;;;3.33;;
9880;SDS011;4979;51.014;6.678;2023-11-19T06:06:17;21.67;;;4.13;;
9880;SDS011;4979;51.014;6.678;2023-11-19T06:08:43;25.58;;;3.63;;
9880;SDS011;4979;51.014;6.678;2023-11-19T06:11:09;14.40;;;3.05;;
9880;SDS011;4979;51.014;6.678;2023-11-19T06:13:39;13.98;;;4.10;;
9880;SDS011;4979;51.014;6.678;2023-11-19T06:16:05;16.20;;;3.67;;
9880;SDS011;4979;51.014;6.678;2023-11-19T06:18:31;13.13;;;2.95;;
9880;SDS011;4979;51.014;6.678;2023-11-19T06:20:57;18.33;;;4.65;;
9880;SDS011;4979;51.014;6.678;2023-11-19T06:23:22;15.18;;;3.30;;
9880;SDS011;4979;51.014;6.678;2023-11-19T06:25:48;19.50;;;4.13;;
9880;SDS011;4979;51.014;6.678;2023-11-19T06:28:14;13.45;;;3.20;;
9880;SDS011;4979;51.014;6.678;2023-11-19T06:30:39;19.58;;;3.60;;
9880;SDS011;4979;51.014;6.678;2023-11-19T06:33:06;17.77;;;3.78;;
9880;SDS011;4979;51.014;6.678;2023-11-19T06:35:32;16.70;;;3.60;;
9880;SDS011;4979;51.014;6.678;2023-11-19T06:38:02;19.67;;;3.65;;
9880;SDS011;4979;51.014;6.678;2023-11-19T06:40:29;20.33;;;3.80;;
9880;SDS011;4979;51.014;6.678;2023-11-19T06:42:55;18.13;;;4.20;;
9880;SDS011;4979;51.014;6.678;2023-11-19T06:45:21;13.38;;;3.30;;
9880;SDS011;4979;51.014;6.678;2023-11-19T06:47:47;17.42;;;4.25;;
9880;SDS011;4979;51.014;6.678;2023-11-19T06:50:12;9.77;;;3.38;;
9880;SDS011;4979;51.014;6.678;2023-11-19T06:52:38;16.88;;;3.83;;
9880;SDS011;4979;51.014;6.678;2023-11-19T06:55:04;17.92;;;3.90;;
9880;SDS011;4979;51.014;6.678;2023-11-19T06:57:30;19.83;;;3.83;;
9880;SDS011;4979;51.014;6.678;2023-11-19T06:59:57;13.82;;;4.70;;
9880;SDS011;4979;51.014;6.678;2023-11-19T07:02:23;18.95;;;3.10;;
9880;SDS011;4979;51.014;6.678;2023-11-19T07:04:49;19.17;;;4.13;;
9880;SDS011;4979;51.014;6.678;2023-11-19T07:07:16;10.55;;;2.85;;
9880;SDS011;4979;51.014;6.678;2023-11-19T07:09:41;18.02;;;3.53;;
9880;SDS011;4979;51.014;6.678;2023-11-19T07:12:07;18.23;;;3.45;;
9880;SDS011;4979;51.014;6.678;2023-11-19T07:14:33;16.17;;;2.95;;
9880;SDS011;4979;51.014;6.678;2023-11-19T07:16:59;19.05;;;3.42;;
9880;SDS011;4979;51.014;6.678;2023-11-19T07:19:25;12.20;;;3.80;;
9880;SDS011;4979;51.014;6.678;2023-11-19T07:21:51;22.55;;;3.80;;
9880;SDS011;4979;51.014;6.678;2023-11-19T07:24:19;25.63;;;4.18;;
9880;SDS011;4979;51.014;6.678;2023-11-19T07:26:45;18.30;;;3.33;;
9880;SDS011;4979;51.014;6.678;2023-11-19T07:29:12;15.75;;;2.88;;
9880;SDS011;4979;51.014;6.678;2023-11-19T07:31:38;11.73;;;3.13;;
9880;SDS011;4979;51.014;6.678;2023-11-19T07:34:04;24.80;;;4.55;;
9880;SDS011;4979;51.014;6.678;2023-11-19T07:36:31;18.45;;;4.55;;
9880;SDS011;4979;51.014;6.678;2023-11-19T07:38:57;15.27;;;3.78;;
9880;SDS011;4979;51.014;6.678;2023-11-19T07:41:23;20.92;;;3.58;;
9880;SDS011;4979;51.014;6.678;2023-11-19T07:43:50;22.83;;;3.85;;
9880;SDS011;4979;51.014;6.678;2023-11-19T07:46:16;20.90;;;3.70;;
9880;SDS011;4979;51.014;6.678;2023-11-19T07:48:44;14.88;;;3.45;;
9880;SDS011;4979;51.014;6.678;2023-11-19T07:51:12;16.98;;;4.47;;
9880;SDS011;4979;51.014;6.678;2023-11-19T07:53:38;20.23;;;3.90;;
9880;SDS011;4979;51.014;6.678;2023-11-19T07:56:06;21.10;;;3.95;;
9880;SDS011;4979;51.014;6.678;2023-11-19T07:58:32;22.65;;;4.57;;
9880;SDS011;4979;51.014;6.678;2023-11-19T08:00:58;21.02;;;4.60;;
9880;SDS011;4979;51.014;6.678;2023-11-19T08:03:23;19.55;;;3.83;;
9880;SDS011;4979;51.014;6.678;2023-11-19T08:05:49;19.58;;;4.15;;
9880;SDS011;4979;51.014;6.678;2023-11-19T08:08:15;19.02;;;4.25;;
9880;SDS011;4979;51.014;6.678;2023-11-19T08:10:41;10.63;;;2.63;;
9880;SDS011;4979;51.014;6.678;2023-11-19T08:13:08;18.55;;;4.10;;
9880;SDS011;4979;51.014;6.678;2023-11-19T08:15:34;16.65;;;3.75;;
9880;SDS011;4979;51.014;6.678;2023-11-19T08:17:59;17.83;;;3.28;;
9880;SDS011;4979;51.014;6.678;2023-11-19T08:20:25;20.13;;;3.40;;
9880;SDS011;4979;51.014;6.678;2023-11-19T08:22:50;14.40;;;3.10;;
9880;SDS011;4979;51.014;6.678;2023-11-19T08:25:16;16.10;;;3.90;;
9880;SDS011;4979;51.014;6.678;2023-11-19T08:27:41;18.40;;;3.63;;
9880;SDS011;4979;51.014;6.678;2023-11-19T08:30:08;19.10;;;3.67;;
9880;SDS011;4979;51.014;6.678;2023-11-19T08:32:34;17.00;;;3.30;;
9880;SDS011;4979;51.014;6.678;2023-11-19T08:35:00;19.02;;;3.95;;
9880;SDS011;4979;51.014;6.678;2023-11-19T08:37:26;16.58;;;3.88;;
9880;SDS011;4979;51.014;6.678;2023-11-19T08:39:52;18.38;;;4.78;;
9880;SDS011;4979;51.014;6.678;2023-11-19T08:42:18;25.05;;;4.15;;
9880;SDS011;4979;51.014;6.678;2023-11-19T08:44:43;23.02;;;4.50;;
9880;SDS011;4979;51.014;6.678;2023-11-19T08:47:15;18.88;;;3.97;;
9880;SDS011;4979;51.014;6.678;2023-11-19T08:49:42;16.60;;;4.05;;
9880;SDS011;4979;51.014;6.678;2023-11-19T08:52:08;14.23;;;3.08;;
9880;SDS011;4979;51.014;6.678;2023-11-19T08:54:35;18.35;;;3.85;;
9880;SDS011;4979;51.014;6.678;2023-11-19T08:57:01;25.40;;;4.10;;
9880;SDS011;4979;51.014;6.678;2023-11-19T08:59:27;17.85;;;5.00;;
9880;SDS011;4979;51.014;6.678;2023-11-19T09:01:54;21.58;;;4.20;;
9880;SDS011;4979;51.014;6.678;2023-11-19T09:04:19;17.67;;;3.28;;
9880;SDS011;4979;51.014;6.678;2023-11-19T09:06:47;23.48;;;3.97;;
9880;SDS011;4979;51.014;6.678;2023-11-19T09:09:13;26.15;;;4.93;;
9880;SDS011;4979;51.014;6.678;2023-11-19T09:11:39;23.92;;;5.03;;
9880;SDS011;4979;51.014;6.678;2023-11-19T09:14:04;15.10;;;3.75;;
9880;SDS011;4979;51.014;6.678;2023-11-19T09:16:30;22.35;;;4.35;;
9880;SDS011;4979;51.014;6.678;2023-11-19T09:18:56;16.17;;;4.13;;
9880;SDS011;4979;51.014;6.678;2023-11-19T09:21:23;27.95;;;4.20;;
9880;SDS011;4979;51.014;6.678;2023-11-19T09:23:49;21.42;;;4.40;;
9880;SDS011;4979;51.014;6.678;2023-11-19T09:26:15;17.23;;;3.03;;
9880;SDS011;4979;51.014;6.678;2023-11-19T09:28:40;25.15;;;5.05;;
9880;SDS011;4979;51.014;6.678;2023-11-19T09:31:12;16.40;;;3.80;;
9880;SDS011;4979;51.014;6.678;2023-11-19T09:33:42;15.30;;;4.32;;
9880;SDS011;4979;51.014;6.678;2023-11-19T09:36:08;18.35;;;2.78;;
9880;SDS011;4979;51.014;6.678;2023-11-19T09:38:34;24.38;;;4.93;;
9880;SDS011;4979;51.014;6.678;2023-11-19T09:41:03;10.63;;;3.83;;
9880;SDS011;4979;51.014;6.678;2023-11-19T09:43:33;18.20;;;4.00;;
9880;SDS011;4979;51.014;6.678;2023-11-19T09:46:02;20.33;;;4.20;;
9880;SDS011;4979;51.014;6.678;2023-11-19T09:48:35;21.85;;;4.43;;
9880;SDS011;4979;51.014;6.678;2023-11-19T09:51:05;19.63;;;3.63;;
9880;SDS011;4979;51.014;6.678;2023-11-19T09:53:31;13.23;;;3.65;;
9880;SDS011;4979;51.014;6.678;2023-11-19T09:55:59;19.05;;;4.57;;
9880;SDS011;4979;51.014;6.678;2023-11-19T09:58:29;21.27;;;4.20;;
9880;SDS011;4979;51.014;6.678;2023-11-19T10:01:01;18.75;;;4.25;;
9880;SDS011;4979;51.014;6.678;2023-11-19T10:03:35;16.38;;;3.88;;
9880;SDS011;4979;51.014;6.678;2023-11-19T10:06:03;17.17;;;4.25;;
9880;SDS011;4979;51.014;6.678;2023-11-19T10:08:29;16.80;;;3.58;;
9880;SDS011;4979;51.014;6.678;2023-11-19T10:10:54;12.93;;;3.55;;
9880;SDS011;4979;51.014;6.678;2023-11-19T10:13:25;21.33;;;4.10;;
9880;SDS011;4979;51.014;6.678;2023-11-19T10:15:52;15.50;;;3.72;;
9880;SDS011;4979;51.014;6.678;2023-11-19T10:18:18;21.70;;;3.97;;
9880;SDS011;4979;51.014;6.678;2023-11-19T10:20:43;15.32;;;3.75;;
9880;SDS011;4979;51.014;6.678;2023-11-19T10:23:10;23.75;;;3.92;;
9880;SDS011;4979;51.014;6.678;2023-11-19T10:25:36;15.50;;;3.40;;
9880;SDS011;4979;51.014;6.678;2023-11-19T10:28:01;24.98;;;4.20;;
9880;SDS011;4979;51.014;6.678;2023-11-19T10:30:28;16.75;;;4.25;;
9880;SDS011;4979;51.014;6.678;2023-11-19T10:33:08;14.65;;;3.40;;
9880;SDS011;4979;51.014;6.678;2023-11-19T10:35:36;19.58;;;4.47;;
9880;SDS011;4979;51.014;6.678;2023-11-19T10:38:16;11.98;;;2.83;;
9880;SDS011;4979;51.014;6.678;2023-11-19T10:40:42;24.33;;;4.35;;
9880;SDS011;4979;51.014;6.678;2023-11-19T10:43:08;13.60;;;3.08;;
9880;SDS011;4979;51.014;6.678;2023-11-19T10:45:38;12.45;;;3.00;;
9880;SDS011;4979;51.014;6.678;2023-11-19T10:48:04;13.52;;;4.30;;
9880;SDS011;4979;51.014;6.678;2023-11-19T10:50:32;21.55;;;4.55;;
9880;SDS011;4979;51.014;6.678;2023-11-19T10:52:59;18.58;;;4.30;;
9880;SDS011;4979;51.014;6.678;2023-11-19T10:55:28;15.32;;;2.58;;
9880;SDS011;4979;51.014;6.678;2023-11-19T10:57:59;15.80;;;3.17;;
9880;SDS011;4979;51.014;6.678;2023-11-19T11:00:39;17.83;;;4.10;;
9880;SDS011;4979;51.014;6.678;2023-11-19T11:03:25;20.52;;;3.60;;
9880;SDS011;4979;51.014;6.678;2023-11-19T11:05:54;18.60;;;3.33;;
9880;SDS011;4979;51.014;6.678;2023-11-19T11:08:21;19.60;;;4.13;;
9880;SDS011;4979;51.014;6.678;2023-11-19T11:10:54;23.05;;;4.10;;
9880;SDS011;4979;51.014;6.678;2023-11-19T11:13:22;22.35;;;4.05;;
9880;SDS011;4979;51.014;6.678;2023-11-19T11:15:58;19.23;;;3.85;;
9880;SDS011;4979;51.014;6.678;2023-11-19T11:18:23;16.50;;;3.40;;
9880;SDS011;4979;51.014;6.678;2023-11-19T11:20:51;11.60;;;3.50;;
9880;SDS011;4979;51.014;6.678;2023-11-19T11:23:52;16.27;;;3.95;;
9880;SDS011;4979;51.014;6.678;2023-11-19T11:26:42;15.13;;;3.17;;
9880;SDS011;4979;51.014;6.678;2023-11-19T11:29:35;16.33;;;4.25;;
9880;SDS011;4979;51.014;6.678;2023-11-19T11:38:08;16.17;;;4.07;;
9880;SDS011;4979;51.014;6.678;2023-11-19T11:40:34;9.20;;;2.85;;
9880;SDS011;4979;51.014;6.678;2023-11-19T11:43:01;6.20;;;2.30;;
9880;SDS011;4979;51.014;6.678;2023-11-19T11:45:39;13.70;;;3.15;;
9880;SDS011;4979;51.014;6.678;2023-11-19T11:48:08;17.17;;;3.22;;
9880;SDS011;4979;51.014;6.678;2023-11-19T11:50:48;17.13;;;3.70;;
9880;SDS011;4979;51.014;6.678;2023-11-19T11:53:16;12.93;;;2.80;;
9880;SDS011;4979;51.014;6.678;2023-11-19T11:58:20;13.85;;;3.55;;
9880;SDS011;4979;51.014;6.678;2023-11-19T12:00:47;12.52;;;3.13;;
9880;SDS011;4979;51.014;6.678;2023-11-19T12:03:13;18.85;;;4.88;;
9880;SDS011;4979;51.014;6.678;2023-11-19T12:05:46;20.83;;;3.80;;
9880;SDS011;4979;51.014;6.678;2023-11-19T12:08:13;20.08;;;3.72;;
9880;SDS011;4979;51.014;6.678;2023-11-19T12:10:49;11.23;;;2.75;;
9880;SDS011;4979;51.014;6.678;2023-11-19T12:13:16;11.60;;;2.88;;
9880;SDS011;4979;51.014;6.678;2023-11-19T12:18:26;16.52;;;3.55;;
9880;SDS011;4979;51.014;6.678;2023-11-19T12:20:52;13.32;;;3.13;;
9880;SDS011;4979;51.014;6.678;2023-11-19T12:23:18;11.35;;;2.58;;
9880;SDS011;4979;51.014;6.678;2023-11-19T12:25:43;16.17;;;3.78;;
9880;SDS011;4979;51.014;6.678;2023-11-19T12:28:14;17.92;;;3.50;;
9880;SDS011;4979;51.014;6.678;2023-11-19T12:30:42;13.10;;;2.83;;
9880;SDS011;4979;51.014;6.678;2023-11-19T12:33:09;16.30;;;3.72;;
9880;SDS011;4979;51.014;6.678;2023-11-19T12:35:45;11.48;;;3.13;;
9880;SDS011;4979;51.014;6.678;2023-11-19T12:38:21;10.15;;;3.55;;
9880;SDS011;4979;51.014;6.678;2023-11-19T12:41:01;18.38;;;3.58;;
9880;SDS011;4979;51.014;6.678;2023-11-19T12:43:31;11.77;;;2.63;;
9880;SDS011;4979;51.014;6.678;2023-11-19T12:45:57;11.40;;;2.88;;
9880;SDS011;4979;51.014;6.678;2023-11-19T12:48:23;13.20;;;3.03;;
9880;SDS011;4979;51.014;6.678;2023-11-19T12:50:52;14.13;;;3.75;;
9880;SDS011;4979;51.014;6.678;2023-11-19T12:53:25;17.33;;;4.60;;
9880;SDS011;4979;51.014;6.678;2023-11-19T12:55:52;15.07;;;3.20;;
9880;SDS011;4979;51.014;6.678;2023-11-19T12:58:30;9.68;;;2.30;;
9880;SDS011;4979;51.014;6.678;2023-11-19T13:01:08;10.85;;;2.63;;
9880;SDS011;4979;51.014;6.678;2023-11-19T13:03:38;16.48;;;3.50;;
9880;SDS011;4979;51.014;6.678;2023-11-19T13:08:49;12.88;;;3.25;;
9880;SDS011;4979;51.014;6.678;2023-11-19T13:11:38;13.38;;;3.22;;
9880;SDS011;4979;51.014;6.678;2023-11-19T13:14:05;15.20;;;3.17;;
9880;SDS011;4979;51.014;6.678;2023-11-19T13:16:33;15.82;;;4.18;;
9880;SDS011;4979;51.014;6.678;2023-11-19T13:19:01;14.68;;;3.80;;
9880;SDS011;4979;51.014;6.678;2023-11-19T13:21:27;16.77;;;3.30;;
9880;SDS011;4979;51.014;6.678;2023-11-19T13:23:54;15.50;;;3.75;;
9880;SDS011;4979;51.014;6.678;2023-11-19T13:26:20;20.30;;;3.63;;
9880;SDS011;4979;51.014;6.678;2023-11-19T13:28:46;17.75;;;3.47;;
9880;SDS011;4979;51.014;6.678;2023-11-19T13:31:11;16.30;;;3.75;;
9880;SDS011;4979;51.014;6.678;2023-11-19T13:33:37;17.67;;;3.75;;
9880;SDS011;4979;51.014;6.678;2023-11-19T13:36:03;9.73;;;2.70;;
9880;SDS011;4979;51.014;6.678;2023-11-19T13:38:33;13.80;;;3.00;;
9880;SDS011;4979;51.014;6.678;2023-11-19T13:41:04;19.60;;;3.78;;
9880;SDS011;4979;51.014;6.678;2023-11-19T13:43:30;22.55;;;3.85;;
9880;SDS011;4979;51.014;6.678;2023-11-19T13:45:56;20.92;;;4.28;;
9880;SDS011;4979;51.014;6.678;2023-11-19T13:48:25;16.98;;;3.67;;
9880;SDS011;4979;51.014;6.678;2023-11-19T13:50:54;16.73;;;4.10;;
9880;SDS011;4979;51.014;6.678;2023-11-19T13:53:20;15.27;;;3.50;;
9880;SDS011;4979;51.014;6.678;2023-11-19T13:55:46;16.52;;;4.18;;
9880;SDS011;4979;51.014;6.678;2023-11-19T13:58:12;16.20;;;3.53;;
9880;SDS011;4979;51.014;6.678;2023-11-19T14:00:38;11.50;;;2.70;;
9880;SDS011;4979;51.014;6.678;2023-11-19T14:03:03;16.33;;;3.15;;
9880;SDS011;4979;51.014;6.678;2023-11-19T14:05:29;12.45;;;3.50;;
9880;SDS011;4979;51.014;6.678;2023-11-19T14:07:55;15.20;;;3.67;;
9880;SDS011;4979;51.014;6.678;2023-11-19T14:10:21;19.65;;;4.13;;
9880;SDS011;4979;51.014;6.678;2023-11-19T14:12:47;13.80;;;3.22;;
9880;SDS011;4979;51.014;6.678;2023-11-19T14:15:14;14.82;;;3.65;;
9880;SDS011;4979;51.014;6.678;2023-11-19T14:17:42;15.63;;;3.83;;
9880;SDS011;4979;51.014;6.678;2023-11-19T14:20:08;16.58;;;3.05;;
9880;SDS011;4979;51.014;6.678;2023-11-19T14:22:44;13.35;;;2.83;;
9880;SDS011;4979;51.014;6.678;2023-11-19T14:25:13;19.00;;;3.45;;
9880;SDS011;4979;51.014;6.678;2023-11-19T14:27:40;11.48;;;2.65;;
9880;SDS011;4979;51.014;6.678;2023-11-19T14:30:08;13.63;;;3.05;;
9880;SDS011;4979;51.014;6.678;2023-11-19T14:32:36;13.55;;;2.60;;
9880;SDS011;4979;51.014;6.678;2023-11-19T14:35:02;13.70;;;2.53;;
9880;SDS011;4979;51.014;6.678;2023-11-19T14:37:28;12.35;;;3.45;;
9880;SDS011;4979;51.014;6.678;2023-11-19T14:39:59;10.75;;;3.60;;
9880;SDS011;4979;51.014;6.678;2023-11-19T14:42:25;14.57;;;3.13;;
9880;SDS011;4979;51.014;6.678;2023-11-19T14:44:52;13.73;;;2.90;;
9880;SDS011;4979;51.014;6.678;2023-11-19T14:47:18;12.55;;;2.55;;
9880;SDS011;4979;51.014;6.678;2023-11-19T14:49:44;9.73;;;2.72;;
9880;SDS011;4979;51.014;6.678;2023-11-19T14:52:09;17.30;;;3.50;;
9880;SDS011;4979;51.014;6.678;2023-11-19T14:54:36;7.80;;;2.08;;
9880;SDS011;4979;51.014;6.678;2023-11-19T14:57:01;13.73;;;3.38;;
9880;SDS011;4979;51.014;6.678;2023-11-19T14:59:28;13.50;;;2.70;;
9880;SDS011;4979;51.014;6.678;2023-11-19T15:01:53;14.77;;;2.80;;
9880;SDS011;4979;51.014;6.678;2023-11-19T15:04:19;17.02;;;3.08;;
9880;SDS011;4979;51.014;6.678;2023-11-19T15:06:45;14.35;;;2.58;;
9880;SDS011;4979;51.014;6.678;2023-11-19T15:09:10;14.30;;;3.35;;
9880;SDS011;4979;51.014;6.678;2023-11-19T15:11:41;11.85;;;2.50;;
9880;SDS011;4979;51.014;6.678;2023-11-19T15:14:07;14.88;;;2.80;;
9880;SDS011;4979;51.014;6.678;2023-11-19T15:16:33;18.10;;;4.00;;
9880;SDS011;4979;51.014;6.678;2023-11-19T15:19:00;11.10;;;2.70;;
9880;SDS011;4979;51.014;6.678;2023-11-19T15:21:28;17.30;;;3.20;;